createdAt,value
2022-09-12T00:00:52.308Z,16.23
2022-09-12T00:03:23.918Z,13.67
2022-09-12T00:05:55.379Z,13.93
2022-09-12T00:08:28.298Z,18.27
2022-09-12T00:10:59.753Z,13.67
2022-09-12T00:13:31.080Z,13.83
2022-09-12T00:16:02.466Z,14.27
2022-09-12T00:18:35.325Z,15.97
2022-09-12T00:21:07.606Z,14.77
2022-09-12T00:23:40.574Z,17.43
2022-09-12T00:26:12.634Z,17.70
2022-09-12T00:28:46.575Z,19.23
2022-09-12T00:31:21.245Z,16.30
2022-09-12T00:33:53.572Z,17.40
2022-09-12T00:36:26.814Z,17.43
2022-09-12T00:39:00.684Z,15.23
2022-09-12T00:41:34.084Z,19.17
2022-09-12T00:44:45.767Z,16.47
2022-09-12T00:47:24.109Z,17.50
2022-09-12T00:50:02.677Z,18.93
2022-09-12T00:52:37.151Z,18.47
2022-09-12T00:55:13.539Z,21.77
2022-09-12T00:57:47.595Z,17.50
2022-09-12T01:00:19.870Z,19.37
2022-09-12T01:02:54.344Z,21.07
2022-09-12T01:05:25.573Z,24.53
2022-09-12T01:07:58.431Z,23.47
2022-09-12T01:10:28.593Z,23.77
2022-09-12T01:13:00.341Z,24.67
2022-09-12T01:15:29.285Z,23.37
2022-09-12T01:18:11.573Z,24.80
2022-09-12T01:20:57.925Z,23.60
2022-09-12T01:24:13.916Z,20.40
2022-09-12T01:27:08.037Z,19.83
2022-09-12T01:29:54.082Z,24.03
2022-09-12T01:32:36.766Z,23.40
2022-09-12T01:35:16.630Z,24.97
2022-09-12T01:37:54.836Z,26.23
2022-09-12T01:40:32.952Z,26.73
2022-09-12T01:43:11.415Z,26.93
2022-09-12T01:45:48.308Z,28.73
2022-09-12T01:48:25.014Z,26.70
2022-09-12T01:50:56.663Z,31.93
2022-09-12T01:53:32.039Z,32.70
2022-09-12T01:56:10.116Z,31.73
2022-09-12T01:58:45.195Z,29.60
2022-09-12T02:01:19.866Z,39.93
2022-09-12T02:03:59.174Z,32.77
2022-09-12T02:06:34.926Z,38.13
2022-09-12T02:09:10.497Z,32.10
2022-09-12T02:11:44.658Z,36.53
2022-09-12T02:14:20.335Z,35.80
2022-09-12T02:16:54.891Z,33.83
2022-09-12T02:19:31.099Z,35.47
2022-09-12T02:22:04.811Z,30.97
2022-09-12T02:24:40.752Z,34.50
2022-09-12T02:27:16.802Z,33.80
2022-09-12T02:29:49.045Z,37.73
2022-09-12T02:32:28.562Z,39.73
2022-09-12T02:35:07.016Z,33.20
2022-09-12T02:37:50.954Z,39.63
2022-09-12T02:40:24.450Z,34.67
2022-09-12T02:42:56.441Z,40.77
2022-09-12T02:45:29.591Z,43.17
2022-09-12T02:48:05.135Z,42.50
2022-09-12T02:50:38.598Z,40.73
2022-09-12T02:53:11.436Z,43.57
2022-09-12T02:55:43.523Z,40.00
2022-09-12T02:58:18.723Z,35.23
2022-09-12T03:00:53.346Z,41.73
2022-09-12T03:03:45.204Z,45.40
2022-09-12T03:06:20.584Z,46.60
2022-09-12T03:09:00.532Z,50.60
2022-09-12T03:11:58.294Z,47.83
2022-09-12T03:14:42.760Z,47.33
2022-09-12T03:17:20.813Z,42.33
2022-09-12T03:19:57.982Z,43.97
2022-09-12T03:22:35.248Z,54.90
2022-09-12T03:25:12.895Z,45.63
2022-09-12T03:27:47.770Z,43.73
2022-09-12T03:30:19.963Z,51.43
2022-09-12T03:32:53.663Z,44.30
2022-09-12T03:35:26.493Z,38.90
2022-09-12T03:37:59.733Z,45.47
2022-09-12T03:40:31.603Z,47.03
2022-09-12T03:43:03.696Z,36.20
2022-09-12T03:45:35.967Z,36.80
2022-09-12T03:48:08.467Z,39.70
2022-09-12T03:50:40.355Z,39.90
2022-09-12T03:53:17.081Z,39.90
2022-09-12T03:55:49.085Z,40.70
2022-09-12T03:58:20.975Z,41.13
2022-09-12T04:00:52.988Z,48.70
2022-09-12T04:03:24.839Z,49.50
2022-09-12T04:05:59.138Z,26.33
2022-09-12T04:08:32.482Z,36.47
2022-09-12T04:11:05.088Z,29.93
2022-09-12T04:13:37.805Z,26.13
2022-09-12T04:16:10.058Z,23.37
2022-09-12T04:18:42.106Z,22.47
2022-09-12T04:21:16.010Z,24.03
2022-09-12T04:23:48.916Z,24.20
2022-09-12T04:26:21.769Z,24.17
2022-09-12T04:28:56.369Z,20.30
2022-09-12T04:31:26.450Z,20.43
2022-09-12T04:33:56.896Z,21.13
2022-09-12T04:36:29.356Z,22.33
2022-09-12T04:39:00.434Z,22.40
2022-09-12T04:41:33.614Z,25.77
2022-09-12T04:44:07.269Z,25.83
2022-09-12T04:46:40.816Z,22.87
2022-09-12T04:49:11.593Z,21.33
2022-09-12T04:51:41.946Z,26.90
2022-09-12T04:54:16.245Z,26.17
2022-09-12T04:56:50.557Z,23.97
2022-09-12T04:59:20.964Z,24.00
2022-09-12T05:01:50.723Z,20.23
2022-09-12T05:04:20.284Z,22.57
2022-09-12T05:06:49.730Z,23.87
2022-09-12T05:09:23.570Z,23.87
2022-09-12T05:12:09.709Z,20.60
2022-09-12T05:14:40.802Z,22.87
2022-09-12T05:17:10.445Z,26.03
2022-09-12T05:19:40.631Z,25.20
2022-09-12T05:22:11.409Z,23.57
2022-09-12T05:24:47.266Z,24.13
2022-09-12T05:27:21.475Z,25.13
2022-09-12T05:29:53.517Z,21.47
2022-09-12T05:32:24.921Z,30.97
2022-09-12T05:34:56.486Z,25.67
2022-09-12T05:37:28.946Z,27.63
2022-09-12T05:40:05.515Z,24.03
2022-09-12T05:42:37.265Z,30.43
2022-09-12T05:45:09.365Z,26.47
2022-09-12T05:47:39.168Z,21.47
2022-09-12T05:50:12.674Z,17.83
2022-09-12T05:52:44.132Z,39.93
2022-09-12T05:55:17.120Z,26.97
2022-09-12T05:57:48.769Z,29.43
2022-09-12T06:00:20.761Z,23.37
2022-09-12T06:02:53.814Z,24.00
2022-09-12T06:05:25.350Z,16.60
2022-09-12T06:07:57.239Z,24.50
2022-09-12T06:10:30.323Z,14.80
2022-09-12T06:13:03.733Z,18.03
2022-09-12T06:15:35.088Z,30.87
2022-09-12T06:18:06.974Z,14.67
2022-09-12T06:20:38.583Z,12.20
2022-09-12T06:23:09.976Z,6.63
2022-09-12T06:25:50.120Z,14.97
2022-09-12T06:28:21.588Z,4.90
2022-09-12T06:30:53.927Z,8.33
2022-09-12T06:33:25.513Z,4.27
2022-09-12T06:35:56.792Z,8.23
2022-09-12T06:38:28.519Z,5.13
2022-09-12T06:41:01.804Z,6.70
2022-09-12T06:43:33.395Z,10.73
2022-09-12T06:46:05.327Z,9.02
2022-09-12T06:48:41.136Z,6.00
2022-09-12T06:51:14.961Z,5.60
2022-09-12T06:53:47.477Z,4.32
2022-09-12T06:56:22.345Z,4.72
2022-09-12T06:58:54.466Z,5.57
2022-09-12T07:01:29.089Z,5.30
2022-09-12T07:04:02.160Z,9.30
2022-09-12T07:06:38.533Z,4.00
2022-09-12T07:09:13.178Z,5.03
2022-09-12T07:11:46.967Z,4.10
2022-09-12T07:14:17.480Z,5.05
2022-09-12T07:16:46.681Z,4.18
2022-09-12T07:19:16.073Z,4.47
2022-09-12T07:21:45.533Z,3.00
2022-09-12T07:24:15.475Z,2.20
2022-09-12T07:26:45.833Z,2.63
2022-09-12T07:32:09.119Z,1.23
2022-09-12T07:34:40.660Z,1.58
2022-09-12T07:37:10.509Z,1.98
2022-09-12T07:39:40.274Z,1.80
2022-09-12T07:42:11.548Z,1.50
2022-09-12T07:44:42.944Z,3.10
2022-09-12T07:47:13.152Z,1.52
2022-09-12T07:49:42.324Z,1.35
2022-09-12T07:52:12.465Z,1.40
2022-09-12T07:54:42.100Z,1.30
2022-09-12T07:57:13.673Z,1.70
2022-09-12T07:59:53.348Z,1.97
2022-09-12T08:02:24.686Z,1.40
2022-09-12T08:04:54.246Z,1.60
2022-09-12T08:07:25.041Z,4.50
2022-09-12T08:09:54.676Z,9.30
2022-09-12T08:12:26.935Z,5.77
2022-09-12T08:14:57.912Z,2.87
2022-09-12T08:17:29.045Z,2.77
2022-09-12T08:19:57.951Z,2.60
2022-09-12T08:22:28.106Z,3.07
2022-09-12T08:24:58.028Z,2.07
2022-09-12T08:27:29.564Z,1.93
2022-09-12T08:30:01.149Z,1.23
2022-09-12T08:32:32.654Z,3.17
2022-09-12T08:35:04.264Z,2.47
2022-09-12T08:37:35.917Z,2.03
2022-09-12T08:40:09.097Z,1.43
2022-09-12T08:42:54.789Z,4.40
2022-09-12T08:45:31.894Z,3.70
2022-09-12T08:48:04.871Z,2.03
2022-09-12T08:50:34.813Z,3.13
2022-09-12T08:53:06.437Z,2.70
2022-09-12T08:55:38.666Z,3.40
2022-09-12T08:58:16.263Z,3.63
2022-09-12T09:00:52.283Z,1.67
2022-09-12T09:04:07.249Z,2.77
2022-09-12T09:06:56.882Z,1.20
2022-09-12T09:09:37.558Z,1.90
2022-09-12T09:12:15.272Z,2.80
2022-09-12T09:15:21.830Z,2.63
2022-09-12T09:17:55.557Z,2.70
2022-09-12T09:20:31.737Z,2.90
2022-09-12T09:23:07.662Z,1.43
2022-09-12T09:25:44.444Z,3.43
2022-09-12T09:28:18.649Z,1.87
2022-09-12T09:30:51.882Z,1.60
2022-09-12T09:33:24.474Z,1.63
2022-09-12T09:36:01.183Z,1.30
2022-09-12T09:38:42.496Z,2.27
2022-09-12T09:41:28.660Z,1.40
2022-09-12T09:44:00.940Z,1.33
2022-09-12T09:46:34.411Z,1.70
2022-09-12T09:49:07.821Z,2.57
2022-09-12T09:51:41.591Z,1.93
2022-09-12T09:54:20.561Z,1.50
2022-09-12T09:56:52.613Z,1.40
2022-09-12T09:59:28.758Z,1.00
2022-09-12T10:02:05.085Z,1.20
2022-09-12T10:04:41.413Z,1.00
2022-09-12T10:07:19.984Z,1.87
2022-09-12T10:10:07.829Z,1.10
2022-09-12T10:12:39.399Z,2.03
2022-09-12T10:15:19.680Z,1.50
2022-09-12T10:17:51.704Z,1.33
2022-09-12T10:20:35.265Z,1.70
2022-09-12T10:23:24.995Z,1.90
2022-09-12T10:25:57.885Z,3.47
2022-09-12T10:28:34.487Z,1.87
2022-09-12T10:31:06.550Z,1.63
2022-09-12T10:33:52.974Z,0.87
2022-09-12T10:36:25.173Z,1.07
2022-09-12T10:38:58.781Z,1.97
2022-09-12T10:41:37.480Z,4.57
2022-09-12T10:44:11.067Z,1.63
2022-09-12T10:46:42.901Z,3.33
2022-09-12T10:49:22.673Z,1.13
2022-09-12T10:51:55.156Z,0.77
2022-09-12T10:54:28.747Z,0.80
2022-09-12T10:57:36.337Z,1.60
2022-09-12T11:00:17.022Z,2.03
2022-09-12T11:03:04.446Z,0.97
2022-09-12T11:05:49.872Z,1.23
2022-09-12T11:08:39.790Z,0.70
2022-09-12T11:11:19.893Z,0.70
2022-09-12T11:14:00.534Z,1.00
2022-09-12T11:16:35.871Z,1.20
2022-09-12T11:19:19.796Z,2.67
2022-09-12T11:22:05.561Z,1.80
2022-09-12T11:24:47.382Z,1.50
2022-09-12T11:27:34.825Z,1.50
2022-09-12T11:30:08.996Z,0.77
2022-09-12T11:33:00.106Z,1.57
2022-09-12T11:35:32.994Z,1.73
2022-09-12T11:38:27.817Z,1.90
2022-09-12T11:41:02.996Z,1.30
2022-09-12T11:43:39.226Z,2.07
2022-09-12T11:46:19.736Z,1.63
2022-09-12T11:48:56.052Z,2.33
2022-09-12T11:51:30.322Z,1.47
2022-09-12T11:54:07.213Z,1.70
2022-09-12T11:56:43.956Z,2.80
2022-09-12T11:59:22.512Z,3.20
2022-09-12T12:01:59.295Z,3.07
2022-09-12T12:04:38.183Z,1.63
2022-09-12T12:07:12.020Z,3.40
2022-09-12T12:09:51.844Z,2.47
2022-09-12T12:12:26.410Z,3.23
2022-09-12T12:14:59.101Z,3.33
2022-09-12T12:17:30.692Z,2.17
2022-09-12T12:20:08.165Z,2.57
2022-09-12T12:22:53.228Z,1.90
2022-09-12T12:25:40.062Z,3.27
2022-09-12T12:28:11.838Z,2.33
2022-09-12T12:31:02.349Z,1.90
2022-09-12T12:34:16.480Z,3.13
2022-09-12T12:36:50.369Z,4.23
2022-09-12T12:39:55.699Z,5.57
2022-09-12T12:43:03.713Z,3.73
2022-09-12T12:46:11.324Z,3.80
2022-09-12T12:49:16.519Z,4.20
2022-09-12T12:52:05.610Z,2.90
2022-09-12T12:54:57.279Z,3.80
2022-09-12T12:57:49.858Z,2.23
2022-09-12T13:00:32.125Z,2.43
2022-09-12T13:03:10.759Z,3.93
2022-09-12T13:05:45.409Z,6.33
2022-09-12T13:08:31.777Z,2.80
2022-09-12T13:11:07.445Z,4.10
2022-09-12T13:13:42.056Z,3.37
2022-09-12T13:16:13.940Z,2.17
2022-09-12T13:18:48.304Z,2.60
2022-09-12T13:21:23.124Z,3.80
2022-09-12T13:24:02.322Z,3.40
2022-09-12T13:26:41.931Z,3.07
2022-09-12T13:29:14.279Z,2.50
2022-09-12T13:31:47.578Z,2.70
2022-09-12T13:34:21.961Z,6.07
2022-09-12T13:37:21.309Z,3.17
2022-09-12T13:40:01.812Z,2.90
2022-09-12T13:42:43.671Z,2.70
2022-09-12T13:45:17.176Z,2.50
2022-09-12T13:47:49.095Z,4.97
2022-09-12T13:50:22.440Z,2.90
2022-09-12T13:52:57.436Z,5.43
2022-09-12T13:55:32.141Z,6.23
2022-09-12T13:58:05.153Z,4.70
2022-09-12T14:00:37.972Z,5.93
2022-09-12T14:03:45.454Z,6.10
2022-09-12T14:06:19.297Z,3.53
2022-09-12T14:08:49.499Z,2.50
2022-09-12T14:11:26.031Z,5.67
2022-09-12T14:13:58.226Z,4.93
2022-09-12T14:16:29.203Z,4.80
2022-09-12T14:19:01.290Z,4.33
2022-09-12T14:21:35.956Z,3.07
2022-09-12T14:24:11.063Z,7.33
2022-09-12T14:26:41.296Z,7.43
2022-09-12T14:29:16.669Z,9.27
2022-09-12T14:31:48.408Z,4.33
2022-09-12T14:34:19.287Z,3.60
2022-09-12T14:36:53.991Z,4.23
2022-09-12T14:39:30.250Z,3.80
2022-09-12T14:42:05.985Z,5.87
2022-09-12T14:44:37.769Z,3.23
2022-09-12T14:47:16.138Z,6.23
2022-09-12T14:49:47.930Z,3.43
2022-09-12T14:52:27.866Z,4.67
2022-09-12T14:55:03.699Z,7.57
2022-09-12T14:57:40.341Z,3.80
2022-09-12T15:00:23.065Z,5.33
2022-09-12T15:02:54.706Z,3.47
2022-09-12T15:05:28.228Z,7.20
2022-09-12T15:08:01.748Z,2.27
2022-09-12T15:10:37.816Z,2.57
2022-09-12T15:13:16.344Z,3.57
2022-09-12T15:15:46.673Z,6.43
2022-09-12T15:18:18.911Z,4.33
2022-09-12T15:20:50.639Z,3.07
2022-09-12T15:23:24.157Z,3.00
2022-09-12T15:25:55.998Z,8.83
2022-09-12T15:28:26.854Z,4.80
2022-09-12T15:30:59.406Z,2.30
2022-09-12T15:33:29.791Z,4.47
2022-09-12T15:36:00.981Z,3.77
2022-09-12T15:38:31.935Z,2.07
2022-09-12T15:41:03.834Z,2.30
2022-09-12T15:43:33.243Z,2.23
2022-09-12T15:46:06.902Z,2.30
2022-09-12T15:48:38.240Z,2.47
2022-09-12T15:51:15.416Z,2.20
2022-09-12T15:53:48.110Z,2.50
2022-09-12T15:56:22.450Z,2.73
2022-09-12T15:58:59.387Z,3.47
2022-09-12T16:01:31.594Z,2.03
2022-09-12T16:04:00.936Z,2.30
2022-09-12T16:06:36.263Z,3.00
2022-09-12T16:09:08.558Z,3.40
2022-09-12T16:11:41.368Z,2.80
2022-09-12T16:14:12.244Z,4.10
2022-09-12T16:16:44.252Z,2.33
2022-09-12T16:19:15.607Z,3.00
2022-09-12T16:21:47.128Z,2.93
2022-09-12T16:24:18.405Z,2.53
2022-09-12T16:27:01.021Z,7.40
2022-09-12T16:29:32.844Z,2.37
2022-09-12T16:32:02.904Z,2.40
2022-09-12T16:34:32.621Z,4.20
2022-09-12T16:37:02.598Z,2.83
2022-09-12T16:39:34.434Z,2.43
2022-09-12T16:42:04.355Z,5.43
2022-09-12T16:44:35.653Z,2.63
2022-09-12T16:47:07.505Z,3.97
2022-09-12T16:49:39.246Z,2.63
2022-09-12T16:52:12.683Z,2.27
2022-09-12T16:54:45.262Z,4.83
2022-09-12T16:57:18.349Z,3.07
2022-09-12T16:59:50.087Z,3.30
2022-09-12T17:02:21.769Z,2.63
2022-09-12T17:04:53.840Z,2.23
2022-09-12T17:07:25.327Z,4.40
2022-09-12T17:09:57.003Z,2.90
2022-09-12T17:12:30.362Z,5.23
2022-09-12T17:15:01.833Z,2.60
2022-09-12T17:17:33.522Z,4.17
2022-09-12T17:20:05.979Z,4.13
2022-09-12T17:22:36.504Z,2.70
2022-09-12T17:25:08.918Z,3.40
2022-09-12T17:27:41.900Z,2.70
2022-09-12T17:30:13.962Z,2.47
2022-09-12T17:32:44.731Z,4.20
2022-09-12T17:35:16.579Z,4.13
2022-09-12T17:37:48.016Z,35.20
2022-09-12T17:40:19.403Z,5.70
2022-09-12T17:42:52.318Z,8.27
2022-09-12T17:45:24.296Z,7.60
2022-09-12T17:47:55.562Z,3.93
2022-09-12T17:50:31.657Z,4.33
2022-09-12T17:53:03.532Z,2.60
2022-09-12T17:55:36.242Z,2.67
2022-09-12T17:58:09.449Z,3.33
2022-09-12T18:00:58.013Z,3.93
2022-09-12T18:03:29.557Z,4.10
2022-09-12T18:06:00.986Z,2.90
2022-09-12T18:08:32.230Z,4.83
2022-09-12T18:11:05.722Z,2.97
2022-09-12T18:13:38.595Z,2.93
2022-09-12T18:16:11.678Z,3.37
2022-09-12T18:18:43.058Z,3.70
2022-09-12T18:21:14.609Z,3.87
2022-09-12T18:23:45.938Z,3.57
2022-09-12T18:26:17.484Z,6.87
2022-09-12T18:28:50.094Z,3.30
2022-09-12T18:31:23.534Z,2.53
2022-09-12T18:34:02.794Z,8.03
2022-09-12T18:36:34.080Z,5.90
2022-09-12T18:39:05.418Z,2.87
2022-09-12T18:41:37.800Z,5.50
2022-09-12T18:44:12.596Z,7.63
2022-09-12T18:46:44.112Z,3.90
2022-09-12T18:49:15.337Z,7.00
2022-09-12T18:51:46.655Z,3.10
2022-09-12T18:54:18.660Z,4.23
2022-09-12T18:56:49.952Z,9.43
2022-09-12T18:59:22.538Z,3.63
2022-09-12T19:01:53.815Z,2.77
2022-09-12T19:04:25.534Z,2.63
2022-09-12T19:06:56.783Z,3.40
2022-09-12T19:09:29.095Z,3.63
2022-09-12T19:12:00.299Z,4.50
2022-09-12T19:14:31.420Z,3.03
2022-09-12T19:17:02.381Z,3.10
2022-09-12T19:19:32.056Z,5.10
2022-09-12T19:22:00.892Z,3.33
2022-09-12T19:24:31.452Z,2.90
2022-09-12T19:27:00.003Z,6.83
2022-09-12T19:29:30.912Z,3.70
2022-09-12T19:32:02.804Z,3.43
2022-09-12T19:34:34.486Z,4.67
2022-09-12T19:37:07.730Z,4.00
2022-09-12T19:39:43.060Z,3.27
2022-09-12T19:42:14.890Z,5.03
2022-09-12T19:44:47.931Z,3.30
2022-09-12T19:47:19.449Z,3.00
2022-09-12T19:49:52.380Z,3.93
2022-09-12T19:52:25.991Z,4.53
2022-09-12T19:54:58.473Z,3.23
2022-09-12T19:57:30.236Z,5.27
2022-09-12T20:00:05.045Z,2.90
2022-09-12T20:02:36.062Z,4.50
2022-09-12T20:05:08.763Z,3.80
2022-09-12T20:07:40.783Z,4.70
2022-09-12T20:10:11.519Z,3.00
2022-09-12T20:12:40.455Z,4.30
2022-09-12T20:15:13.485Z,3.67
2022-09-12T20:17:42.968Z,5.30
2022-09-12T20:20:13.674Z,4.90
2022-09-12T20:22:45.424Z,3.40
2022-09-12T20:25:15.617Z,4.07
2022-09-12T20:27:45.254Z,3.40
2022-09-12T20:30:16.556Z,4.07
2022-09-12T20:32:45.531Z,3.90
2022-09-12T20:35:17.337Z,3.23
2022-09-12T20:37:49.541Z,3.37
2022-09-12T20:40:20.134Z,4.33
2022-09-12T20:42:51.010Z,3.17
2022-09-12T20:45:23.844Z,2.70
2022-09-12T20:47:53.281Z,2.77
2022-09-12T20:50:23.936Z,2.43
2022-09-12T20:52:52.722Z,3.00
2022-09-12T20:55:24.278Z,3.10
2022-09-12T20:57:55.657Z,4.10
2022-09-12T21:00:27.353Z,2.93
2022-09-12T21:02:57.320Z,3.87
2022-09-12T21:05:28.221Z,8.30
2022-09-12T21:07:59.301Z,2.30
2022-09-12T21:10:30.102Z,3.47
2022-09-12T21:13:01.034Z,2.90
2022-09-12T21:15:32.834Z,2.83
2022-09-12T21:18:02.406Z,3.03
2022-09-12T21:20:33.790Z,3.73
2022-09-12T21:23:05.898Z,2.40
2022-09-12T21:25:36.540Z,2.47
2022-09-12T21:28:07.243Z,9.03
2022-09-12T21:30:39.763Z,4.57
2022-09-12T21:33:08.836Z,5.73
2022-09-12T21:35:39.912Z,3.73
2022-09-12T21:38:10.682Z,3.40
2022-09-12T21:40:41.584Z,3.27
2022-09-12T21:43:13.314Z,3.37
2022-09-12T21:46:02.288Z,4.10
2022-09-12T21:48:34.773Z,4.83
2022-09-12T21:51:06.725Z,4.20
2022-09-12T21:53:41.583Z,3.23
2022-09-12T21:56:13.090Z,3.97
2022-09-12T21:58:45.394Z,4.40
2022-09-12T22:01:18.531Z,4.30
2022-09-12T22:03:50.638Z,3.00
2022-09-12T22:06:22.785Z,3.40
2022-09-12T22:08:54.916Z,3.53
2022-09-12T22:11:28.273Z,4.17
2022-09-12T22:14:00.049Z,3.60
2022-09-12T22:16:34.148Z,4.00
2022-09-12T22:19:05.278Z,4.60
2022-09-12T22:21:34.430Z,3.80
2022-09-12T22:24:21.612Z,3.77
2022-09-12T22:26:51.931Z,4.10
2022-09-12T22:29:24.287Z,3.43
2022-09-12T22:32:00.817Z,3.27
2022-09-12T22:34:34.031Z,4.13
2022-09-12T22:37:06.417Z,4.13
2022-09-12T22:39:41.751Z,3.53
2022-09-12T22:42:13.528Z,3.10
2022-09-12T22:44:45.571Z,3.83
2022-09-12T22:47:20.517Z,4.13
2022-09-12T22:49:52.986Z,3.00
2022-09-12T22:52:25.314Z,5.93
2022-09-12T22:54:57.345Z,3.43
2022-09-12T22:57:29.369Z,2.73
2022-09-12T23:00:00.993Z,2.90
2022-09-12T23:02:35.265Z,3.17
2022-09-12T23:05:07.679Z,2.60
2022-09-12T23:07:39.346Z,3.80
2022-09-12T23:10:11.974Z,2.67
2022-09-12T23:12:46.965Z,2.73
2022-09-12T23:15:18.830Z,3.43
2022-09-12T23:17:49.685Z,4.97
2022-09-12T23:20:21.502Z,2.80
2022-09-12T23:22:53.199Z,4.83
2022-09-12T23:25:26.341Z,4.93
2022-09-12T23:27:58.018Z,3.50
2022-09-12T23:30:29.864Z,3.40
2022-09-12T23:33:02.934Z,2.80
2022-09-12T23:35:34.710Z,3.07
2022-09-12T23:38:08.080Z,2.57
2022-09-12T23:40:41.432Z,3.73
2022-09-12T23:43:13.212Z,3.10
2022-09-12T23:45:45.027Z,3.20
2022-09-12T23:48:18.065Z,2.90
2022-09-12T23:50:50.950Z,3.40
2022-09-12T23:53:23.259Z,3.10
2022-09-12T23:55:55.574Z,3.23
2022-09-12T23:58:28.111Z,3.40
